createdAt,value
2023-02-27T00:00:21.420Z,94014.48
2023-02-27T00:01:15.185Z,94013.83
2023-02-27T00:01:48.645Z,94008.90
2023-02-27T00:02:22.144Z,94015.11
2023-02-27T00:02:55.624Z,94012.77
2023-02-27T00:03:29.220Z,94015.29
2023-02-27T00:04:02.804Z,94018.33
2023-02-27T00:04:36.271Z,94019.94
2023-02-27T00:05:10.701Z,94020.10
2023-02-27T00:05:44.237Z,94016.53
2023-02-27T00:06:18.051Z,94016.98
2023-02-27T00:06:51.966Z,94020.77
2023-02-27T00:07:26.312Z,94014.30
2023-02-27T00:08:01.117Z,94018.77
2023-02-27T00:08:34.721Z,94015.80
2023-02-27T00:09:08.649Z,94016.61
2023-02-27T00:09:42.289Z,94014.93
2023-02-27T00:10:16.343Z,94012.66
2023-02-27T00:10:50.712Z,94011.64
2023-02-27T00:11:24.361Z,94015.14
2023-02-27T00:11:57.882Z,94015.20
2023-02-27T00:12:37.777Z,94020.27
2023-02-27T00:13:11.202Z,94017.02
2023-02-27T00:13:46.115Z,94011.94
2023-02-27T00:14:19.635Z,94019.36
2023-02-27T00:14:53.094Z,94019.52
2023-02-27T00:15:26.585Z,94021.02
2023-02-27T00:16:01.438Z,94020.74
2023-02-27T00:16:34.923Z,94019.48
2023-02-27T00:17:08.284Z,94018.82
2023-02-27T00:17:42.554Z,94021.99
2023-02-27T00:18:16.272Z,94026.02
2023-02-27T00:18:49.587Z,94024.52
2023-02-27T00:19:23.055Z,94017.81
2023-02-27T00:19:56.512Z,94022.59
2023-02-27T00:20:30.230Z,94019.90
2023-02-27T00:21:03.982Z,94025.18
2023-02-27T00:21:38.124Z,94023.27
2023-02-27T00:22:11.592Z,94023.90
2023-02-27T00:22:46.283Z,94028.72
2023-02-27T00:23:20.692Z,94021.80
2023-02-27T00:23:54.402Z,94020.06
2023-02-27T00:24:28.006Z,94022.10
2023-02-27T00:25:01.510Z,94023.77
2023-02-27T00:25:35.958Z,94021.67
2023-02-27T00:26:09.487Z,94021.09
2023-02-27T00:26:43.185Z,94023.92
2023-02-27T00:27:17.267Z,94027.08
2023-02-27T00:27:50.940Z,94028.62
2023-02-27T00:28:24.335Z,94023.73
2023-02-27T00:28:57.733Z,94027.02
2023-02-27T00:29:31.148Z,94026.44
2023-02-27T00:30:07.136Z,94027.76
2023-02-27T00:30:40.579Z,94029.06
2023-02-27T00:31:14.018Z,94028.20
2023-02-27T00:31:47.507Z,94027.73
2023-02-27T00:32:21.245Z,94030.73
2023-02-27T00:32:55.643Z,94025.60
2023-02-27T00:33:29.042Z,94027.83
2023-02-27T00:34:03.120Z,94035.94
2023-02-27T00:34:36.633Z,94032.04
2023-02-27T00:35:12.079Z,94034.93
2023-02-27T00:35:58.848Z,94035.90
2023-02-27T00:36:32.921Z,94040.21
2023-02-27T00:37:06.335Z,94037.88
2023-02-27T00:37:40.727Z,94034.71
2023-02-27T00:38:14.150Z,94034.84
2023-02-27T00:38:47.883Z,94035.31
2023-02-27T00:39:21.372Z,94034.10
2023-02-27T00:39:54.739Z,94036.45
2023-02-27T00:40:28.210Z,94035.77
2023-02-27T00:41:02.029Z,94034.86
2023-02-27T00:41:35.615Z,94035.70
2023-02-27T00:42:09.397Z,94035.45
2023-02-27T00:42:43.354Z,94035.87
2023-02-27T00:43:16.738Z,94038.39
2023-02-27T00:43:50.179Z,94043.24
2023-02-27T00:44:24.538Z,94042.42
2023-02-27T00:44:58.205Z,94041.24
2023-02-27T00:45:31.541Z,94038.77
2023-02-27T00:46:05.525Z,94046.08
2023-02-27T00:46:38.932Z,94045.41
2023-02-27T00:47:12.564Z,94042.46
2023-02-27T00:47:47.202Z,94043.97
2023-02-27T00:48:21.940Z,94045.02
2023-02-27T00:48:55.402Z,94041.56
2023-02-27T00:49:30.796Z,94044.67
2023-02-27T00:50:04.767Z,94041.66
2023-02-27T00:50:38.335Z,94047.65
2023-02-27T00:51:11.761Z,94041.20
2023-02-27T00:51:45.335Z,94041.66
2023-02-27T00:52:18.745Z,94042.80
2023-02-27T00:52:52.084Z,94047.22
2023-02-27T00:53:25.555Z,94044.88
2023-02-27T00:54:00.474Z,94043.54
2023-02-27T00:54:34.040Z,94045.84
2023-02-27T00:55:08.194Z,94045.64
2023-02-27T00:55:41.617Z,94044.86
2023-02-27T00:56:15.300Z,94049.86
2023-02-27T00:56:48.710Z,94050.85
2023-02-27T00:57:23.156Z,94049.15
2023-02-27T00:57:56.602Z,94051.47
2023-02-27T00:58:30.175Z,94051.02
2023-02-27T00:59:04.347Z,94049.59
2023-02-27T00:59:37.785Z,94052.48
2023-02-27T01:00:11.782Z,94054.28
2023-02-27T01:00:45.413Z,94052.64
2023-02-27T01:01:18.951Z,94052.51
2023-02-27T01:01:52.391Z,94049.93
2023-02-27T01:02:25.854Z,94050.42
2023-02-27T01:03:01.853Z,94046.62
2023-02-27T01:03:37.678Z,94051.17
2023-02-27T01:04:11.348Z,94049.05
2023-02-27T01:04:44.687Z,94050.60
2023-02-27T01:05:18.823Z,94051.73
2023-02-27T01:05:52.483Z,94052.61
2023-02-27T01:06:25.961Z,94050.01
2023-02-27T01:07:01.236Z,94053.08
2023-02-27T01:07:34.765Z,94050.90
2023-02-27T01:08:08.398Z,94053.61
2023-02-27T01:08:42.239Z,94053.41
2023-02-27T01:09:15.684Z,94051.56
2023-02-27T01:09:51.828Z,94050.95
2023-02-27T01:10:28.807Z,94054.79
2023-02-27T01:11:03.763Z,94053.35
2023-02-27T01:11:38.525Z,94051.54
2023-02-27T01:12:12.142Z,94051.34
2023-02-27T01:12:45.560Z,94050.20
2023-02-27T01:13:18.936Z,94050.02
2023-02-27T01:13:52.397Z,94055.86
2023-02-27T01:14:26.708Z,94054.64
2023-02-27T01:15:00.142Z,94055.22
2023-02-27T01:15:33.810Z,94052.27
2023-02-27T01:16:08.775Z,94054.41
2023-02-27T01:16:42.347Z,94056.45
2023-02-27T01:17:16.147Z,94058.02
2023-02-27T01:17:49.506Z,94057.32
2023-02-27T01:18:23.047Z,94058.34
2023-02-27T01:18:56.514Z,94054.22
2023-02-27T01:19:29.985Z,94057.48
2023-02-27T01:20:06.692Z,94056.09
2023-02-27T01:20:40.204Z,94052.64
2023-02-27T01:21:13.643Z,94057.55
2023-02-27T01:21:47.153Z,94058.39
2023-02-27T01:22:20.553Z,94061.02
2023-02-27T01:22:53.954Z,94060.55
2023-02-27T01:23:27.704Z,94058.75
2023-02-27T01:24:01.670Z,94060.44
2023-02-27T01:24:35.244Z,94058.65
2023-02-27T01:25:09.174Z,94061.02
2023-02-27T01:25:48.160Z,94058.26
2023-02-27T01:26:21.598Z,94058.86
2023-02-27T01:26:54.948Z,94061.45
2023-02-27T01:27:28.691Z,94058.89
2023-02-27T01:28:02.276Z,94060.30
2023-02-27T01:28:35.885Z,94059.04
2023-02-27T01:29:09.465Z,94057.88
2023-02-27T01:29:43.025Z,94054.58
2023-02-27T01:30:17.041Z,94060.17
2023-02-27T01:30:51.173Z,94057.83
2023-02-27T01:31:24.945Z,94062.33
2023-02-27T01:32:00.861Z,94058.14
2023-02-27T01:32:34.641Z,94061.40
2023-02-27T01:33:09.070Z,94063.81
2023-02-27T01:33:45.682Z,94063.16
2023-02-27T01:34:19.173Z,94055.08
2023-02-27T01:34:53.095Z,94065.16
2023-02-27T01:35:29.514Z,94068.35
2023-02-27T01:36:03.267Z,94065.33
2023-02-27T01:36:37.268Z,94064.87
2023-02-27T01:37:10.699Z,94065.89
2023-02-27T01:37:44.922Z,94066.98
2023-02-27T01:38:18.524Z,94067.16
2023-02-27T01:38:51.984Z,94065.54
2023-02-27T01:39:26.542Z,94063.39
2023-02-27T01:40:00.025Z,94065.63
2023-02-27T01:40:41.882Z,94061.00
2023-02-27T01:41:15.365Z,94061.48
2023-02-27T01:41:50.040Z,94063.11
2023-02-27T01:42:26.949Z,94063.21
2023-02-27T01:43:00.408Z,94063.02
2023-02-27T01:44:13.436Z,94067.85
2023-02-27T01:45:12.662Z,94066.10
2023-02-27T01:45:50.682Z,94070.50
2023-02-27T01:46:25.508Z,94069.68
2023-02-27T01:46:58.879Z,94071.61
2023-02-27T01:47:32.879Z,94054.92
2023-02-27T01:48:40.595Z,94070.52
2023-02-27T01:49:22.141Z,94070.80
2023-02-27T01:49:56.040Z,94057.35
2023-02-27T01:50:30.540Z,94074.40
2023-02-27T01:51:06.121Z,94068.19
2023-02-27T01:51:52.360Z,94069.37
2023-02-27T01:52:26.091Z,94067.55
2023-02-27T01:53:02.659Z,94068.70
2023-02-27T01:53:39.569Z,94068.19
2023-02-27T01:54:20.570Z,94070.97
2023-02-27T01:54:55.226Z,94066.08
2023-02-27T01:55:32.332Z,94064.41
2023-02-27T01:56:14.422Z,94068.07
2023-02-27T01:56:48.417Z,94067.20
2023-02-27T01:57:21.947Z,94070.36
2023-02-27T01:57:56.231Z,94065.60
2023-02-27T01:58:29.932Z,94069.44
2023-02-27T01:59:07.859Z,94066.80
2023-02-27T01:59:43.314Z,94069.14
2023-02-27T02:00:17.604Z,94065.04
2023-02-27T02:00:52.861Z,94070.59
2023-02-27T02:01:27.508Z,94067.80
2023-02-27T02:02:05.312Z,94070.05
2023-02-27T02:02:45.050Z,94070.96
2023-02-27T02:03:36.937Z,94067.17
2023-02-27T02:04:30.313Z,94070.98
2023-02-27T02:05:10.087Z,94070.70
2023-02-27T02:05:45.127Z,94071.87
2023-02-27T02:06:19.438Z,94074.15
2023-02-27T02:07:02.423Z,94075.31
2023-02-27T02:07:41.482Z,94070.59
2023-02-27T02:08:19.111Z,94071.48
2023-02-27T02:08:55.732Z,94066.30
2023-02-27T02:09:30.800Z,94070.38
2023-02-27T02:10:04.971Z,94070.34
2023-02-27T02:10:40.282Z,94067.27
2023-02-27T02:11:16.662Z,94069.77
2023-02-27T02:11:53.144Z,94069.11
2023-02-27T02:12:34.173Z,94068.66
2023-02-27T02:13:08.017Z,94068.40
2023-02-27T02:13:42.141Z,94067.52
2023-02-27T02:14:17.948Z,94067.98
2023-02-27T02:14:53.882Z,94070.79
2023-02-27T02:15:37.254Z,94074.11
2023-02-27T02:16:28.896Z,94070.02
2023-02-27T02:17:35.761Z,94069.90
2023-02-27T02:18:12.124Z,94072.43
2023-02-27T02:18:51.317Z,94072.14
2023-02-27T02:19:49.300Z,94074.73
2023-02-27T02:21:01.444Z,94070.79
2023-02-27T02:21:41.098Z,94075.77
2023-02-27T02:22:23.512Z,94072.17
2023-02-27T02:23:23.275Z,94074.64
2023-02-27T02:24:24.921Z,94071.20
2023-02-27T02:25:16.767Z,94070.59
2023-02-27T02:26:24.880Z,94069.77
2023-02-27T02:27:06.198Z,94071.41
2023-02-27T02:28:10.253Z,94069.20
2023-02-27T02:29:04.368Z,94071.45
2023-02-27T02:30:02.959Z,94071.36
2023-02-27T02:30:45.254Z,94068.11
2023-02-27T02:31:18.738Z,94072.92
2023-02-27T02:32:01.364Z,94069.52
2023-02-27T02:33:05.769Z,94071.93
2023-02-27T02:34:18.260Z,94072.76
2023-02-27T02:35:06.931Z,94071.27
2023-02-27T02:35:49.433Z,94073.65
2023-02-27T02:37:00.411Z,94074.59
2023-02-27T02:38:08.001Z,94073.77
2023-02-27T02:39:06.274Z,94071.73
2023-02-27T02:39:58.861Z,94072.23
2023-02-27T02:40:51.038Z,94070.59
2023-02-27T02:41:39.131Z,94071.86
2023-02-27T02:42:15.459Z,94068.89
2023-02-27T02:42:55.927Z,94068.16
2023-02-27T02:43:39.850Z,94065.95
2023-02-27T02:44:19.529Z,94067.56
2023-02-27T02:45:05.301Z,94067.48
2023-02-27T02:45:52.103Z,94069.13
2023-02-27T02:46:45.673Z,94066.58
2023-02-27T02:47:31.100Z,94068.91
2023-02-27T02:48:17.820Z,94067.02
2023-02-27T02:50:44.976Z,94065.14
2023-02-27T02:51:27.846Z,94066.36
2023-02-27T02:52:20.998Z,94068.03
2023-02-27T02:53:15.341Z,94067.40
2023-02-27T02:53:56.088Z,94067.33
2023-02-27T02:54:41.256Z,94067.98
2023-02-27T02:55:33.132Z,94070.02
2023-02-27T02:56:27.397Z,94070.08
2023-02-27T02:57:07.983Z,94070.14
2023-02-27T02:57:49.260Z,94070.67
2023-02-27T02:58:30.122Z,94070.89
2023-02-27T02:59:22.275Z,94072.18
2023-02-27T03:00:07.397Z,94072.16
2023-02-27T03:00:48.684Z,94076.56
2023-02-27T03:01:25.777Z,94073.02
2023-02-27T03:02:14.844Z,94070.70
2023-02-27T03:03:03.084Z,94075.48
2023-02-27T03:03:44.240Z,94073.56
2023-02-27T03:04:35.772Z,94076.11
2023-02-27T03:05:10.371Z,94074.44
2023-02-27T03:06:07.298Z,94076.47
2023-02-27T03:06:56.715Z,94079.16
2023-02-27T03:07:59.499Z,94079.98
2023-02-27T03:08:41.494Z,94078.98
2023-02-27T03:09:21.039Z,94082.10
2023-02-27T03:10:21.280Z,94082.59
2023-02-27T03:10:57.998Z,94080.47
2023-02-27T03:11:37.403Z,94083.41
2023-02-27T03:12:16.058Z,94083.42
2023-02-27T03:13:18.201Z,94082.08
2023-02-27T03:13:57.780Z,94084.55
2023-02-27T03:14:39.641Z,94083.19
2023-02-27T03:15:21.122Z,94086.27
2023-02-27T03:16:28.234Z,94081.79
2023-02-27T03:17:09.603Z,94082.54
2023-02-27T03:17:51.273Z,94083.59
2023-02-27T03:18:31.189Z,94084.94
2023-02-27T03:19:53.057Z,94084.71
2023-02-27T03:20:34.151Z,94086.20
2023-02-27T03:21:15.838Z,94084.91
2023-02-27T03:22:15.604Z,94089.97
2023-02-27T03:22:56.101Z,94085.85
2023-02-27T03:23:42.994Z,94091.38
2023-02-27T03:24:29.533Z,94086.03
2023-02-27T03:25:07.042Z,94084.40
2023-02-27T03:25:46.514Z,94089.48
2023-02-27T03:26:29.417Z,94088.86
2023-02-27T03:27:06.027Z,94089.10
2023-02-27T03:27:47.877Z,94088.97
2023-02-27T03:28:26.579Z,94088.20
2023-02-27T03:29:08.472Z,94084.42
2023-02-27T03:29:53.861Z,94084.98
2023-02-27T03:30:45.471Z,94086.98
2023-02-27T03:31:42.066Z,94088.75
2023-02-27T03:32:25.387Z,94091.39
2023-02-27T03:33:08.734Z,94086.69
2023-02-27T03:33:52.158Z,94091.67
2023-02-27T03:34:38.155Z,94093.42
2023-02-27T03:35:14.689Z,94091.19
2023-02-27T03:36:12.743Z,94093.65
2023-02-27T03:37:16.646Z,94091.23
2023-02-27T03:38:01.449Z,94094.25
2023-02-27T03:38:47.526Z,94094.36
2023-02-27T03:39:38.913Z,94089.71
2023-02-27T03:40:40.851Z,94090.85
2023-02-27T03:41:34.930Z,94091.52
2023-02-27T03:42:34.647Z,94088.49
2023-02-27T03:43:25.271Z,94090.02
2023-02-27T03:44:25.156Z,94093.23
2023-02-27T03:45:06.824Z,94089.87
2023-02-27T03:45:52.474Z,94090.27
2023-02-27T03:46:28.139Z,94095.27
2023-02-27T03:47:01.947Z,94075.38
2023-02-27T03:47:36.047Z,94089.87
2023-02-27T03:48:09.704Z,94094.44
2023-02-27T03:48:44.892Z,94097.44
2023-02-27T03:49:18.580Z,94095.24
2023-02-27T03:49:52.164Z,94096.08
2023-02-27T03:50:25.768Z,94095.11
2023-02-27T03:50:59.472Z,94099.64
2023-02-27T03:51:34.115Z,94098.55
2023-02-27T03:52:07.729Z,94098.48
2023-02-27T03:52:41.453Z,94101.67
2023-02-27T03:53:27.409Z,94103.08
2023-02-27T03:54:08.501Z,94104.13
2023-02-27T03:54:51.244Z,94103.98
2023-02-27T03:55:38.346Z,94102.64
2023-02-27T03:56:14.499Z,94104.41
2023-02-27T03:56:56.027Z,94104.28
2023-02-27T03:57:31.012Z,94108.17
2023-02-27T03:58:06.055Z,94112.80
2023-02-27T03:58:40.539Z,94112.61
2023-02-27T03:59:14.211Z,94112.61
2023-02-27T03:59:51.611Z,94113.42
2023-02-27T04:00:26.886Z,94115.50
2023-02-27T04:01:00.559Z,94114.59
2023-02-27T04:01:34.717Z,94109.42
2023-02-27T04:02:08.894Z,94113.64
2023-02-27T04:02:44.166Z,94111.92
2023-02-27T04:03:18.678Z,94112.81
2023-02-27T04:03:58.565Z,94117.73
2023-02-27T04:05:01.422Z,94119.23
2023-02-27T04:06:31.770Z,94117.55
2023-02-27T04:07:27.158Z,94120.56
2023-02-27T04:08:16.169Z,94123.65
2023-02-27T04:09:17.827Z,94118.87
2023-02-27T04:10:09.578Z,94118.72
2023-02-27T04:10:59.297Z,94116.31
2023-02-27T04:11:36.586Z,94119.82
2023-02-27T04:12:22.156Z,94113.98
2023-02-27T04:13:18.624Z,94118.55
2023-02-27T04:13:51.898Z,94116.22
2023-02-27T04:15:08.947Z,94116.45
2023-02-27T04:16:02.837Z,94118.98
2023-02-27T04:16:55.156Z,94115.67
2023-02-27T04:17:31.394Z,94118.69
2023-02-27T04:18:53.370Z,94121.65
2023-02-27T04:19:58.764Z,94116.18
2023-02-27T04:20:45.280Z,94119.30
2023-02-27T04:21:33.893Z,94124.46
2023-02-27T04:22:29.558Z,94124.51
2023-02-27T04:23:09.098Z,94122.55
2023-02-27T04:23:58.321Z,94126.19
2023-02-27T04:25:14.976Z,94128.24
2023-02-27T04:25:52.469Z,94126.23
2023-02-27T04:26:51.553Z,94120.26
2023-02-27T04:27:42.661Z,94121.78
2023-02-27T04:28:37.429Z,94122.84
2023-02-27T04:29:29.545Z,94121.11
2023-02-27T04:30:14.520Z,94125.52
2023-02-27T04:30:56.328Z,94124.33
2023-02-27T04:32:07.256Z,94130.73
2023-02-27T04:32:49.060Z,94126.61
2023-02-27T04:33:44.511Z,94124.27
2023-02-27T04:34:44.158Z,94128.28
2023-02-27T04:35:33.742Z,94128.12
2023-02-27T04:36:36.334Z,94126.55
2023-02-27T04:37:36.001Z,94131.23
2023-02-27T04:38:29.310Z,94130.30
2023-02-27T04:39:20.185Z,94129.11
2023-02-27T04:40:01.907Z,94130.36
2023-02-27T04:40:43.065Z,94131.85
2023-02-27T04:41:21.011Z,94131.85
2023-02-27T04:42:04.730Z,94132.92
2023-02-27T04:42:44.924Z,94133.33
2023-02-27T04:43:20.036Z,94132.41
2023-02-27T04:43:57.861Z,94133.65
2023-02-27T04:44:35.921Z,94135.16
2023-02-27T04:45:15.263Z,94133.59
2023-02-27T04:45:50.583Z,94132.96
2023-02-27T04:46:28.395Z,94135.77
2023-02-27T04:47:05.237Z,94137.12
2023-02-27T04:47:51.842Z,94133.20
2023-02-27T04:48:35.819Z,94132.75
2023-02-27T04:49:19.641Z,94134.07
2023-02-27T04:50:01.807Z,94134.20
2023-02-27T04:50:42.884Z,94132.27
2023-02-27T04:51:21.258Z,94133.01
2023-02-27T04:52:05.370Z,94134.85
2023-02-27T04:52:47.753Z,94132.01
2023-02-27T04:53:35.414Z,94133.90
2023-02-27T04:54:14.268Z,94138.60
2023-02-27T04:55:00.153Z,94133.77
2023-02-27T04:55:38.256Z,94136.80
2023-02-27T04:56:27.906Z,94134.28
2023-02-27T04:57:06.696Z,94134.77
2023-02-27T04:57:55.762Z,94136.29
2023-02-27T04:58:58.429Z,94135.37
2023-02-27T04:59:37.430Z,94138.13
2023-02-27T05:00:14.093Z,94139.45
2023-02-27T05:00:53.762Z,94137.99
2023-02-27T05:01:41.514Z,94143.17
2023-02-27T05:02:37.336Z,94138.41
2023-02-27T05:03:19.902Z,94139.16
2023-02-27T05:03:55.337Z,94139.95
2023-02-27T05:04:34.287Z,94141.94
2023-02-27T05:05:15.413Z,94142.29
2023-02-27T05:05:49.217Z,94142.54
2023-02-27T05:06:29.879Z,94144.88
2023-02-27T05:07:06.880Z,94146.92
2023-02-27T05:07:47.095Z,94143.91
2023-02-27T05:09:05.637Z,94148.34
2023-02-27T05:09:55.434Z,94143.31
2023-02-27T05:10:33.217Z,94144.06
2023-02-27T05:11:22.834Z,94140.58
2023-02-27T05:12:11.238Z,94145.15
2023-02-27T05:13:00.198Z,94143.80
2023-02-27T05:13:42.440Z,94146.83
2023-02-27T05:14:24.351Z,94151.35
2023-02-27T05:15:05.079Z,94150.09
2023-02-27T05:15:56.616Z,94150.64
2023-02-27T05:16:33.391Z,94149.27
2023-02-27T05:17:15.582Z,94145.59
2023-02-27T05:18:11.050Z,94147.69
2023-02-27T05:18:45.677Z,94146.13
2023-02-27T05:19:21.075Z,94148.05
2023-02-27T05:19:54.683Z,94146.07
2023-02-27T05:20:38.375Z,94149.13
2023-02-27T05:21:22.964Z,94145.86
2023-02-27T05:22:01.040Z,94148.80
2023-02-27T05:22:55.730Z,94145.27
2023-02-27T05:24:09.861Z,94150.93
2023-02-27T05:24:54.794Z,94150.73
2023-02-27T05:25:41.519Z,94153.48
2023-02-27T05:26:23.921Z,94151.46
2023-02-27T05:27:29.683Z,94151.81
2023-02-27T05:28:09.661Z,94149.30
2023-02-27T05:29:00.140Z,94150.72
2023-02-27T05:29:47.873Z,94149.64
2023-02-27T05:30:36.804Z,94148.92
2023-02-27T05:31:26.045Z,94150.29
2023-02-27T05:32:27.118Z,94149.37
2023-02-27T05:33:12.911Z,94151.70
2023-02-27T05:33:54.766Z,94153.36
2023-02-27T05:34:36.554Z,94150.93
2023-02-27T05:35:33.853Z,94150.15
2023-02-27T05:36:19.785Z,94151.79
2023-02-27T05:37:00.394Z,94148.39
2023-02-27T05:37:52.073Z,94153.52
2023-02-27T05:38:32.548Z,94154.12
2023-02-27T05:39:09.148Z,94151.33
2023-02-27T05:39:46.097Z,94152.87
2023-02-27T05:40:28.356Z,94150.55
2023-02-27T05:41:26.259Z,94152.41
2023-02-27T05:42:10.248Z,94151.23
2023-02-27T05:42:50.997Z,94151.41
2023-02-27T05:43:47.555Z,94153.48
2023-02-27T05:44:29.594Z,94154.72
2023-02-27T05:45:14.413Z,94153.73
2023-02-27T05:45:53.060Z,94154.92
2023-02-27T05:46:33.236Z,94151.89
2023-02-27T05:47:18.246Z,94151.67
2023-02-27T05:47:58.570Z,94153.29
2023-02-27T05:48:37.442Z,94152.01
2023-02-27T05:49:16.197Z,94151.60
2023-02-27T05:49:56.297Z,94155.15
2023-02-27T05:50:34.226Z,94153.64
2023-02-27T05:51:11.628Z,94157.34
2023-02-27T05:51:48.571Z,94158.08
2023-02-27T05:52:26.924Z,94158.91
2023-02-27T05:53:08.151Z,94149.05
2023-02-27T05:53:48.066Z,94155.00
2023-02-27T05:54:39.693Z,94159.19
2023-02-27T05:55:21.635Z,94159.10
2023-02-27T05:55:59.023Z,94158.00
2023-02-27T05:56:35.246Z,94155.77
2023-02-27T05:57:16.112Z,94153.25
2023-02-27T05:57:56.775Z,94155.09
2023-02-27T05:58:39.188Z,94157.58
2023-02-27T05:59:21.374Z,94159.79
2023-02-27T06:00:13.717Z,94159.48
2023-02-27T06:01:00.574Z,94165.08
2023-02-27T06:01:34.516Z,94166.14
2023-02-27T06:02:08.110Z,94163.77
2023-02-27T06:02:43.930Z,94161.61
2023-02-27T06:03:18.533Z,94167.29
2023-02-27T06:03:52.028Z,94168.64
2023-02-27T06:04:25.421Z,94167.71
2023-02-27T06:04:59.662Z,94169.20
2023-02-27T06:05:41.459Z,94169.85
2023-02-27T06:06:18.806Z,94166.66
2023-02-27T06:06:52.470Z,94173.81
2023-02-27T06:07:25.787Z,94168.79
2023-02-27T06:07:59.208Z,94173.01
2023-02-27T06:08:33.320Z,94169.95
2023-02-27T06:09:06.752Z,94173.72
2023-02-27T06:09:44.630Z,94173.53
2023-02-27T06:10:20.644Z,94172.72
2023-02-27T06:10:55.483Z,94176.67
2023-02-27T06:11:28.963Z,94173.23
2023-02-27T06:12:02.624Z,94171.38
2023-02-27T06:12:36.184Z,94171.33
2023-02-27T06:13:09.711Z,94170.41
2023-02-27T06:13:43.264Z,94171.60
2023-02-27T06:14:16.661Z,94162.73
2023-02-27T06:14:51.977Z,94170.88
2023-02-27T06:15:25.500Z,94170.76
2023-02-27T06:15:59.054Z,94168.64
2023-02-27T06:16:32.569Z,94165.98
2023-02-27T06:17:06.101Z,94155.88
2023-02-27T06:17:40.333Z,94171.98
2023-02-27T06:18:15.131Z,94175.27
2023-02-27T06:18:48.745Z,94173.48
2023-02-27T06:19:22.115Z,94178.83
2023-02-27T06:19:55.573Z,94173.77
2023-02-27T06:20:29.291Z,94173.16
2023-02-27T06:21:07.060Z,94174.38
2023-02-27T06:21:40.531Z,94174.62
2023-02-27T06:22:14.077Z,94173.70
2023-02-27T06:22:47.854Z,94178.09
2023-02-27T06:23:21.610Z,94183.36
2023-02-27T06:23:54.971Z,94183.27
2023-02-27T06:24:28.475Z,94181.75
2023-02-27T06:25:02.431Z,94183.93
2023-02-27T06:25:35.988Z,94184.82
2023-02-27T06:26:13.847Z,94184.55
2023-02-27T06:26:52.546Z,94188.84
2023-02-27T06:27:29.222Z,94187.20
2023-02-27T06:28:02.644Z,94186.77
2023-02-27T06:28:36.182Z,94187.38
2023-02-27T06:29:09.767Z,94186.77
2023-02-27T06:29:43.131Z,94191.23
2023-02-27T06:30:16.918Z,94189.58
2023-02-27T06:30:55.147Z,94188.98
2023-02-27T06:31:30.698Z,94190.31
2023-02-27T06:32:04.207Z,94186.81
2023-02-27T06:32:37.612Z,94192.55
2023-02-27T06:33:12.588Z,94186.73
2023-02-27T06:33:45.932Z,94186.86
2023-02-27T06:34:19.536Z,94182.45
2023-02-27T06:34:53.502Z,94184.37
2023-02-27T06:35:29.337Z,94189.45
2023-02-27T06:36:03.121Z,94189.67
2023-02-27T06:36:36.660Z,94190.08
2023-02-27T06:37:10.194Z,94190.52
2023-02-27T06:37:43.777Z,94189.77
2023-02-27T06:38:17.164Z,94186.94
2023-02-27T06:38:50.869Z,94190.54
2023-02-27T06:39:24.248Z,94191.86
2023-02-27T06:39:57.740Z,94187.02
2023-02-27T06:40:31.464Z,94191.31
2023-02-27T06:41:05.151Z,94190.75
2023-02-27T06:41:38.827Z,94193.00
2023-02-27T06:42:12.423Z,94193.93
2023-02-27T06:42:46.025Z,94194.79
2023-02-27T06:43:19.588Z,94192.52
2023-02-27T06:43:52.999Z,94193.29
2023-02-27T06:44:26.369Z,94199.67
2023-02-27T06:44:59.934Z,94196.27
2023-02-27T06:45:33.384Z,94197.20
2023-02-27T06:46:07.719Z,94200.85
2023-02-27T06:46:41.269Z,94199.29
2023-02-27T06:47:14.682Z,94198.65
2023-02-27T06:47:48.143Z,94200.77
2023-02-27T06:48:21.997Z,94200.97
2023-02-27T06:48:55.533Z,94200.58
2023-02-27T06:49:31.628Z,94199.22
2023-02-27T06:50:05.608Z,94207.81
2023-02-27T06:50:39.093Z,94201.92
2023-02-27T06:51:12.471Z,94205.45
2023-02-27T06:51:45.865Z,94204.27
2023-02-27T06:52:19.295Z,94205.73
2023-02-27T06:52:52.780Z,94207.71
2023-02-27T06:53:26.210Z,94202.85
2023-02-27T06:53:59.682Z,94204.96
2023-02-27T06:54:34.118Z,94206.52
2023-02-27T06:55:08.740Z,94205.81
2023-02-27T06:55:42.286Z,94205.17
2023-02-27T06:56:15.803Z,94205.96
2023-02-27T06:56:50.486Z,94205.36
2023-02-27T06:57:23.971Z,94210.48
2023-02-27T06:57:57.591Z,94207.75
2023-02-27T06:58:31.025Z,94209.97
2023-02-27T06:59:04.520Z,94210.20
2023-02-27T06:59:38.140Z,94213.96
2023-02-27T07:00:12.824Z,94217.67
2023-02-27T07:00:46.558Z,94215.41
2023-02-27T07:01:20.198Z,94215.61
2023-02-27T07:01:54.068Z,94217.65
2023-02-27T07:02:29.809Z,94216.77
2023-02-27T07:03:04.759Z,94217.64
2023-02-27T07:03:38.361Z,94216.04
2023-02-27T07:04:15.390Z,94217.65
2023-02-27T07:04:49.082Z,94218.23
2023-02-27T07:05:22.468Z,94223.13
2023-02-27T07:05:58.642Z,94219.92
2023-02-27T07:07:34.281Z,94223.38
2023-02-27T07:07:34.540Z,94220.60
2023-02-27T07:08:11.313Z,94224.07
2023-02-27T07:08:54.245Z,94223.23
2023-02-27T07:09:36.437Z,94223.20
2023-02-27T07:10:12.713Z,94223.05
2023-02-27T07:10:47.410Z,94225.08
2023-02-27T07:11:20.850Z,94224.14
2023-02-27T07:11:54.594Z,94222.50
2023-02-27T07:12:27.958Z,94225.66
2023-02-27T07:13:01.736Z,94227.02
2023-02-27T07:13:36.576Z,94225.52
2023-02-27T07:14:10.304Z,94224.21
2023-02-27T07:14:43.895Z,94225.98
2023-02-27T07:15:18.772Z,94225.41
2023-02-27T07:15:52.642Z,94225.17
2023-02-27T07:16:26.539Z,94226.73
2023-02-27T07:17:04.659Z,94226.61
2023-02-27T07:17:38.267Z,94225.17
2023-02-27T07:18:11.733Z,94224.02
2023-02-27T07:18:45.329Z,94229.61
2023-02-27T07:19:18.814Z,94228.42
2023-02-27T07:19:52.522Z,94227.30
2023-02-27T07:20:26.222Z,94229.36
2023-02-27T07:21:00.823Z,94229.27
2023-02-27T07:21:34.794Z,94231.10
2023-02-27T07:22:10.005Z,94227.20
2023-02-27T07:22:43.620Z,94230.59
2023-02-27T07:23:17.204Z,94229.60
2023-02-27T07:23:50.723Z,94230.30
2023-02-27T07:24:25.059Z,94233.67
2023-02-27T07:24:58.655Z,94228.14
2023-02-27T07:25:32.068Z,94228.84
2023-02-27T07:26:07.804Z,94230.77
2023-02-27T07:26:41.544Z,94231.33
2023-02-27T07:27:15.313Z,94225.95
2023-02-27T07:27:51.085Z,94234.98
2023-02-27T07:28:24.755Z,94235.48
2023-02-27T07:28:58.656Z,94237.04
2023-02-27T07:29:32.170Z,94238.98
2023-02-27T07:30:06.238Z,94237.54
2023-02-27T07:30:39.601Z,94234.20
2023-02-27T07:31:13.052Z,94233.14
2023-02-27T07:31:46.483Z,94233.21
2023-02-27T07:32:20.285Z,94234.17
2023-02-27T07:32:53.768Z,94232.73
2023-02-27T07:33:27.215Z,94233.77
2023-02-27T07:34:00.771Z,94236.42
2023-02-27T07:34:34.960Z,94235.10
2023-02-27T07:35:09.122Z,94234.14
2023-02-27T07:35:42.674Z,94234.31
2023-02-27T07:36:16.153Z,94236.32
2023-02-27T07:36:49.599Z,94235.23
2023-02-27T07:37:23.091Z,94235.55
2023-02-27T07:37:56.442Z,94234.69
2023-02-27T07:38:29.824Z,94237.77
2023-02-27T07:39:03.898Z,94237.96
2023-02-27T07:39:37.457Z,94235.01
2023-02-27T07:40:11.992Z,94234.05
2023-02-27T07:40:46.649Z,94234.98
2023-02-27T07:41:29.921Z,94238.65
2023-02-27T07:42:06.004Z,94238.21
2023-02-27T07:42:40.118Z,94241.70
2023-02-27T07:43:13.662Z,94238.48
2023-02-27T07:43:47.294Z,94242.14
2023-02-27T07:44:20.651Z,94239.15
2023-02-27T07:44:54.030Z,94240.17
2023-02-27T07:45:27.489Z,94243.75
2023-02-27T07:46:04.312Z,94219.05
2023-02-27T07:46:38.131Z,94243.17